createdAt,value
2022-08-26T00:00:48.540Z,19.63
2022-08-26T00:03:15.485Z,19.65
2022-08-26T00:05:43.441Z,19.81
2022-08-26T00:08:10.415Z,19.54
2022-08-26T00:10:40.397Z,19.65
2022-08-26T00:13:07.394Z,19.43
2022-08-26T00:15:35.196Z,19.50
2022-08-26T00:18:01.674Z,19.65
2022-08-26T00:20:29.684Z,19.32
2022-08-26T00:22:57.321Z,19.36
2022-08-26T00:25:24.330Z,19.46
2022-08-26T00:27:50.818Z,19.23
2022-08-26T00:30:24.254Z,19.33
2022-08-26T00:32:53.068Z,19.21
2022-08-26T00:35:20.066Z,19.28
2022-08-26T00:37:46.875Z,19.21
2022-08-26T00:40:15.679Z,19.19
2022-08-26T00:42:46.095Z,19.24
2022-08-26T00:45:13.752Z,19.11
2022-08-26T00:47:43.928Z,19.29
2022-08-26T00:50:12.558Z,19.44
2022-08-26T00:52:39.673Z,19.23
2022-08-26T00:55:20.366Z,19.39
2022-08-26T00:57:48.589Z,19.33
2022-08-26T01:00:20.589Z,19.34
2022-08-26T01:02:48.278Z,19.48
2022-08-26T01:05:16.318Z,19.52
2022-08-26T01:07:42.712Z,19.58
2022-08-26T01:10:11.329Z,19.47
2022-08-26T01:12:40.978Z,19.42
2022-08-26T01:15:10.063Z,19.61
2022-08-26T01:17:38.351Z,19.68
2022-08-26T01:20:40.236Z,19.53
2022-08-26T01:23:08.706Z,19.63
2022-08-26T01:25:38.589Z,19.57
2022-08-26T01:28:09.007Z,19.58
2022-08-26T01:30:38.537Z,19.46
2022-08-26T01:33:06.908Z,19.58
2022-08-26T01:35:33.418Z,19.72
2022-08-26T01:38:02.160Z,19.50
2022-08-26T01:40:32.003Z,19.25
2022-08-26T01:42:59.787Z,19.38
2022-08-26T01:45:28.334Z,19.33
2022-08-26T01:47:57.363Z,19.21
2022-08-26T01:50:30.317Z,19.17
2022-08-26T01:52:58.494Z,19.18
2022-08-26T01:55:32.884Z,19.16
2022-08-26T01:58:02.242Z,19.22
2022-08-26T02:00:29.234Z,19.10
2022-08-26T02:03:16.614Z,19.07
2022-08-26T02:05:48.930Z,19.14
2022-08-26T02:08:20.593Z,19.09
2022-08-26T02:10:54.806Z,19.18
2022-08-26T02:13:21.712Z,19.09
2022-08-26T02:15:49.293Z,19.10
2022-08-26T02:18:16.955Z,19.06
2022-08-26T02:20:43.933Z,19.06
2022-08-26T02:23:10.357Z,19.18
2022-08-26T02:25:55.466Z,19.10
2022-08-26T02:28:21.876Z,19.20
2022-08-26T02:30:55.440Z,19.11
2022-08-26T02:33:22.077Z,19.17
2022-08-26T02:35:48.696Z,19.11
2022-08-26T02:38:15.879Z,19.10
2022-08-26T02:40:43.852Z,19.15
2022-08-26T02:43:10.630Z,19.10
2022-08-26T02:45:37.164Z,19.13
2022-08-26T02:48:09.088Z,19.10
2022-08-26T02:50:36.787Z,19.28
2022-08-26T02:53:03.331Z,19.43
2022-08-26T02:55:30.173Z,19.35
2022-08-26T02:57:56.624Z,19.36
2022-08-26T03:00:23.818Z,19.41
2022-08-26T03:02:50.307Z,19.45
2022-08-26T03:05:17.891Z,19.49
2022-08-26T03:07:44.250Z,19.47
2022-08-26T03:10:13.130Z,19.54
2022-08-26T03:12:41.249Z,19.47
2022-08-26T03:15:16.476Z,19.52
2022-08-26T03:17:45.022Z,19.51
2022-08-26T03:20:11.453Z,19.54
2022-08-26T03:22:40.172Z,19.51
2022-08-26T03:25:08.924Z,19.45
2022-08-26T03:27:35.279Z,19.51
2022-08-26T03:30:20.387Z,19.54
2022-08-26T03:32:46.724Z,19.48
2022-08-26T03:35:13.126Z,19.47
2022-08-26T03:37:40.351Z,19.31
2022-08-26T03:40:09.021Z,19.28
2022-08-26T03:42:36.825Z,19.21
2022-08-26T03:45:03.999Z,19.29
2022-08-26T03:47:31.190Z,19.38
2022-08-26T03:49:57.774Z,19.29
2022-08-26T03:52:24.213Z,19.37
2022-08-26T03:54:51.985Z,19.14
2022-08-26T03:57:18.393Z,19.20
2022-08-26T03:59:45.702Z,19.32
2022-08-26T04:02:12.077Z,19.31
2022-08-26T04:04:38.422Z,19.30
2022-08-26T04:07:05.099Z,19.25
2022-08-26T04:09:31.724Z,19.18
2022-08-26T04:12:03.526Z,19.25
2022-08-26T04:14:31.069Z,19.23
2022-08-26T04:16:58.647Z,19.23
2022-08-26T04:19:25.674Z,19.28
2022-08-26T04:21:53.063Z,19.29
2022-08-26T04:24:20.915Z,19.25
2022-08-26T04:26:47.899Z,19.31
2022-08-26T04:29:15.728Z,19.17
2022-08-26T04:31:42.368Z,19.34
2022-08-26T04:34:10.877Z,19.31
2022-08-26T04:36:38.000Z,19.32
2022-08-26T04:39:05.287Z,19.39
2022-08-26T04:41:32.027Z,19.32
2022-08-26T04:43:58.366Z,19.36
2022-08-26T04:46:25.425Z,19.32
2022-08-26T04:48:53.036Z,19.39
2022-08-26T04:51:20.475Z,19.46
2022-08-26T04:53:46.951Z,19.42
2022-08-26T04:56:13.758Z,19.40
2022-08-26T04:58:41.145Z,19.41
2022-08-26T05:01:08.238Z,19.47
2022-08-26T05:03:35.357Z,19.49
2022-08-26T05:06:05.560Z,19.44
2022-08-26T05:08:32.026Z,19.25
2022-08-26T05:10:58.876Z,19.34
2022-08-26T05:13:27.591Z,19.43
2022-08-26T05:15:54.596Z,19.12
2022-08-26T05:18:27.490Z,19.21
2022-08-26T05:20:54.673Z,19.27
2022-08-26T05:23:22.688Z,19.19
2022-08-26T05:25:50.088Z,19.22
2022-08-26T05:28:18.098Z,19.26
2022-08-26T05:30:45.013Z,19.09
2022-08-26T05:33:12.125Z,19.16
2022-08-26T05:35:39.138Z,19.17
2022-08-26T05:38:12.485Z,19.32
2022-08-26T05:40:41.310Z,19.36
2022-08-26T05:43:10.406Z,19.22
2022-08-26T05:45:46.205Z,19.24
2022-08-26T05:48:13.359Z,19.33
2022-08-26T05:50:47.777Z,19.29
2022-08-26T05:53:15.301Z,19.42
2022-08-26T05:55:44.975Z,19.36
2022-08-26T05:58:11.965Z,19.17
2022-08-26T06:00:39.008Z,19.40
2022-08-26T06:03:11.207Z,19.48
2022-08-26T06:05:41.697Z,19.51
2022-08-26T06:08:11.515Z,19.47
2022-08-26T06:11:07.254Z,19.63
2022-08-26T06:13:34.932Z,19.64
2022-08-26T06:16:03.872Z,19.72
2022-08-26T06:18:34.861Z,19.76
2022-08-26T06:21:19.107Z,19.81
2022-08-26T06:24:05.151Z,19.87
2022-08-26T06:26:32.189Z,19.82
2022-08-26T06:28:58.983Z,19.79
2022-08-26T06:31:26.172Z,19.86
2022-08-26T06:33:53.806Z,19.92
2022-08-26T06:36:25.395Z,19.92
2022-08-26T06:38:52.716Z,19.98
2022-08-26T06:41:21.090Z,20.01
2022-08-26T06:43:49.559Z,20.09
2022-08-26T06:46:17.293Z,20.09
2022-08-26T06:48:44.482Z,20.12
2022-08-26T06:51:13.245Z,20.18
2022-08-26T06:53:41.204Z,20.25
2022-08-26T06:56:09.361Z,20.20
2022-08-26T06:58:37.424Z,20.19
2022-08-26T07:01:11.279Z,20.32
2022-08-26T07:03:39.769Z,20.24
2022-08-26T07:06:06.563Z,20.29
2022-08-26T07:08:33.693Z,20.23
2022-08-26T07:11:04.417Z,20.11
2022-08-26T07:13:31.299Z,20.31
2022-08-26T07:15:58.016Z,20.36
2022-08-26T07:18:29.354Z,20.37
2022-08-26T07:20:55.743Z,20.45
2022-08-26T07:23:22.907Z,20.46
2022-08-26T07:25:49.698Z,20.49
2022-08-26T07:28:16.146Z,20.54
2022-08-26T07:30:43.833Z,20.57
2022-08-26T07:33:10.288Z,20.58
2022-08-26T07:35:37.625Z,20.64
2022-08-26T07:38:04.302Z,20.62
2022-08-26T07:40:31.939Z,20.71
2022-08-26T07:42:58.412Z,20.78
2022-08-26T07:45:28.542Z,20.78
2022-08-26T07:47:54.980Z,20.82
2022-08-26T07:50:22.552Z,20.88
2022-08-26T07:53:10.803Z,20.89
2022-08-26T07:55:37.431Z,21.00
2022-08-26T07:58:05.491Z,20.99
2022-08-26T08:00:32.971Z,21.03
2022-08-26T08:03:00.234Z,21.07
2022-08-26T08:05:33.417Z,21.11
2022-08-26T08:08:21.860Z,21.10
2022-08-26T08:10:48.907Z,21.18
2022-08-26T08:13:15.688Z,21.23
2022-08-26T08:15:42.255Z,21.30
2022-08-26T08:18:15.346Z,21.23
2022-08-26T08:20:44.777Z,21.34
2022-08-26T08:23:20.778Z,21.37
2022-08-26T08:25:49.111Z,21.44
2022-08-26T08:28:15.692Z,21.49
2022-08-26T08:30:42.339Z,21.50
2022-08-26T08:33:08.796Z,21.52
2022-08-26T08:35:37.069Z,21.53
2022-08-26T08:38:04.341Z,21.58
2022-08-26T08:40:31.303Z,21.55
2022-08-26T08:42:57.745Z,21.62
2022-08-26T08:45:24.063Z,21.66
2022-08-26T08:47:54.082Z,21.64
2022-08-26T08:50:21.215Z,21.66
2022-08-26T08:52:51.864Z,21.67
2022-08-26T08:55:18.632Z,21.76
2022-08-26T08:57:45.076Z,21.74
2022-08-26T09:00:16.860Z,21.67
2022-08-26T09:02:50.836Z,21.89
2022-08-26T09:05:24.938Z,21.91
2022-08-26T09:07:57.743Z,22.05
2022-08-26T09:10:30.685Z,22.03
2022-08-26T09:12:57.223Z,22.18
2022-08-26T09:15:28.685Z,21.83
2022-08-26T09:18:05.739Z,21.78
2022-08-26T09:20:45.416Z,21.50
2022-08-26T09:23:12.035Z,21.52
2022-08-26T09:28:25.352Z,21.87
2022-08-26T09:31:01.357Z,21.59
2022-08-26T09:33:29.696Z,21.55
2022-08-26T09:36:12.315Z,21.68
2022-08-26T09:38:38.713Z,22.05
2022-08-26T09:41:08.255Z,22.23
2022-08-26T09:43:35.270Z,22.33
2022-08-26T09:46:22.535Z,22.16
2022-08-26T09:48:53.135Z,22.30
2022-08-26T09:51:19.692Z,22.42
2022-08-26T09:53:51.814Z,22.30
2022-08-26T09:56:25.740Z,22.50
2022-08-26T09:58:54.349Z,22.42
2022-08-26T10:01:23.498Z,22.47
2022-08-26T10:03:50.566Z,22.42
2022-08-26T10:06:16.947Z,22.55
2022-08-26T10:08:47.658Z,22.65
2022-08-26T10:11:17.229Z,22.60
2022-08-26T10:13:46.409Z,22.55
2022-08-26T10:16:23.810Z,22.52
2022-08-26T10:19:09.645Z,22.64
2022-08-26T10:21:44.559Z,22.39
2022-08-26T10:24:15.143Z,22.45
2022-08-26T10:26:59.470Z,22.48
2022-08-26T10:29:29.580Z,22.46
2022-08-26T10:32:03.745Z,22.36
2022-08-26T10:34:31.939Z,22.35
2022-08-26T10:37:15.835Z,22.35
2022-08-26T10:39:59.024Z,22.30
2022-08-26T10:42:37.641Z,22.26
2022-08-26T10:45:07.593Z,21.58
2022-08-26T10:47:44.850Z,21.19
2022-08-26T10:50:11.376Z,21.38
2022-08-26T10:52:57.600Z,21.34
2022-08-26T10:55:34.998Z,21.34
2022-08-26T10:58:11.570Z,21.13
2022-08-26T11:01:10.080Z,20.86
2022-08-26T11:03:57.914Z,20.50
2022-08-26T11:06:27.929Z,20.59
2022-08-26T11:08:56.719Z,20.04
2022-08-26T11:11:41.629Z,20.32
2022-08-26T12:18:10.251Z,19.61
2022-08-26T12:20:54.290Z,19.67
2022-08-26T12:23:22.319Z,19.72
2022-08-26T12:25:52.709Z,19.62
2022-08-26T12:28:19.667Z,19.46
2022-08-26T12:31:03.155Z,19.57
2022-08-26T12:33:30.227Z,19.29
2022-08-26T12:35:57.420Z,19.20
2022-08-26T12:38:25.517Z,19.37
2022-08-26T12:40:52.517Z,19.34
2022-08-26T12:43:38.532Z,19.24
2022-08-26T12:46:06.653Z,19.30
2022-08-26T12:48:36.001Z,19.19
2022-08-26T12:51:03.123Z,19.19
2022-08-26T12:53:32.037Z,19.28
2022-08-26T12:56:00.293Z,19.22
2022-08-26T12:58:39.818Z,19.28
2022-08-26T13:01:09.293Z,19.18
2022-08-26T13:03:40.228Z,19.12
2022-08-26T13:06:29.777Z,19.07
2022-08-26T13:09:19.485Z,19.20
2022-08-26T13:11:45.929Z,19.17
2022-08-26T13:14:23.860Z,19.29
2022-08-26T13:16:51.429Z,19.46
2022-08-26T13:19:23.044Z,19.49
2022-08-26T13:21:50.697Z,19.46
2022-08-26T13:24:21.586Z,19.58
2022-08-26T13:26:49.140Z,19.41
2022-08-26T13:29:16.104Z,19.39
2022-08-26T13:31:44.344Z,19.54
2022-08-26T13:34:12.672Z,19.49
2022-08-26T13:36:39.173Z,19.57
2022-08-26T13:39:06.209Z,19.46
2022-08-26T13:41:33.075Z,19.26
2022-08-26T13:43:59.826Z,19.33
2022-08-26T13:46:26.897Z,19.29
2022-08-26T13:48:54.771Z,19.36
2022-08-26T13:51:22.582Z,19.32
2022-08-26T13:53:50.144Z,19.18
2022-08-26T13:56:16.586Z,19.08
2022-08-26T13:58:43.006Z,19.08
2022-08-26T14:01:12.607Z,19.06
2022-08-26T14:03:39.128Z,18.98
2022-08-26T14:06:05.580Z,19.08
2022-08-26T14:08:32.644Z,18.82
2022-08-26T14:10:59.223Z,18.97
2022-08-26T14:13:25.722Z,18.97
2022-08-26T14:15:52.765Z,19.09
2022-08-26T14:18:21.380Z,19.10
2022-08-26T14:20:50.593Z,19.02
2022-08-26T14:23:19.053Z,19.10
2022-08-26T14:25:45.501Z,19.05
2022-08-26T14:28:12.040Z,18.92
2022-08-26T14:30:42.326Z,19.01
2022-08-26T14:33:11.088Z,19.09
2022-08-26T14:35:37.649Z,19.11
2022-08-26T14:38:04.198Z,19.06
2022-08-26T14:40:31.400Z,19.23
2022-08-26T14:43:00.741Z,19.19
2022-08-26T14:45:30.677Z,19.24
2022-08-26T14:47:57.246Z,19.35
2022-08-26T14:50:25.353Z,19.54
2022-08-26T14:53:11.620Z,19.49
2022-08-26T14:55:40.494Z,19.65
2022-08-26T14:58:07.021Z,19.65
2022-08-26T15:00:33.552Z,19.81
2022-08-26T15:03:00.278Z,19.81
2022-08-26T15:05:27.019Z,19.80
2022-08-26T15:07:53.945Z,19.89
2022-08-26T15:10:20.458Z,19.92
2022-08-26T15:12:47.236Z,19.51
2022-08-26T15:15:15.212Z,19.56
2022-08-26T15:17:41.887Z,19.54
2022-08-26T15:20:09.347Z,19.64
2022-08-26T15:22:36.225Z,19.65
2022-08-26T15:25:02.804Z,19.67
2022-08-26T15:27:29.243Z,19.62
2022-08-26T15:29:55.695Z,19.68
2022-08-26T15:32:22.162Z,19.65
2022-08-26T15:34:49.981Z,19.74
2022-08-26T15:37:16.983Z,19.71
2022-08-26T15:39:44.119Z,19.65
2022-08-26T15:42:11.578Z,19.78
2022-08-26T15:44:42.480Z,19.71
2022-08-26T15:47:08.922Z,19.59
2022-08-26T15:49:35.356Z,19.79
2022-08-26T15:52:05.169Z,19.79
2022-08-26T15:54:32.567Z,19.93
2022-08-26T15:57:02.348Z,19.97
2022-08-26T15:59:31.091Z,19.86
2022-08-26T16:01:59.126Z,19.60
2022-08-26T16:04:25.990Z,19.58
2022-08-26T16:06:53.160Z,19.56
2022-08-26T16:09:22.884Z,19.45
2022-08-26T16:11:50.473Z,19.55
2022-08-26T16:14:17.022Z,19.60
2022-08-26T16:16:43.452Z,19.65
2022-08-26T16:19:10.067Z,19.66
2022-08-26T16:21:36.476Z,19.66
2022-08-26T16:24:03.490Z,19.77
2022-08-26T16:26:32.870Z,19.66
2022-08-26T16:29:01.343Z,19.70
2022-08-26T16:31:27.817Z,19.80
2022-08-26T16:33:54.271Z,19.86
2022-08-26T16:36:20.671Z,19.86
2022-08-26T16:38:50.050Z,19.90
2022-08-26T16:41:17.641Z,19.94
2022-08-26T16:43:44.140Z,19.79
2022-08-26T16:46:11.372Z,19.85
2022-08-26T16:48:37.888Z,19.97
2022-08-26T16:51:04.372Z,19.83
2022-08-26T16:53:31.474Z,19.95
2022-08-26T16:55:58.168Z,19.87
2022-08-26T16:58:24.605Z,19.65
2022-08-26T17:00:51.073Z,19.40
2022-08-26T17:03:17.495Z,19.40
2022-08-26T17:05:44.559Z,19.34
2022-08-26T17:08:11.934Z,19.24
2022-08-26T17:10:38.741Z,19.32
2022-08-26T17:13:05.697Z,19.52
2022-08-26T17:15:32.422Z,19.71
2022-08-26T17:17:59.044Z,19.33
2022-08-26T17:20:26.034Z,19.49
2022-08-26T17:22:54.167Z,19.56
2022-08-26T17:25:31.620Z,19.61
2022-08-26T17:27:58.385Z,19.62
2022-08-26T17:30:25.887Z,19.70
2022-08-26T17:32:53.786Z,19.68
2022-08-26T17:35:20.335Z,19.75
2022-08-26T17:37:46.919Z,19.76
2022-08-26T17:40:15.544Z,19.73
2022-08-26T17:42:42.316Z,19.72
2022-08-26T17:45:09.647Z,19.68
2022-08-26T17:47:36.158Z,19.74
2022-08-26T17:50:04.805Z,19.68
2022-08-26T17:52:31.201Z,19.76
2022-08-26T17:54:57.692Z,19.73
2022-08-26T17:57:24.623Z,19.77
2022-08-26T17:59:51.020Z,19.73
2022-08-26T18:02:19.351Z,19.79
2022-08-26T18:04:45.754Z,19.73
2022-08-26T18:07:12.204Z,19.76
2022-08-26T18:09:38.910Z,19.77
2022-08-26T18:12:05.435Z,19.75
2022-08-26T18:14:33.520Z,19.75
2022-08-26T18:16:59.962Z,19.72
2022-08-26T18:19:26.483Z,19.72
2022-08-26T18:21:53.020Z,19.69
2022-08-26T18:24:19.577Z,19.65
2022-08-26T18:26:48.228Z,19.73
2022-08-26T18:29:15.858Z,19.67
2022-08-26T18:31:42.409Z,19.67
2022-08-26T18:34:12.771Z,19.64
2022-08-26T18:36:42.504Z,19.55
2022-08-26T18:39:09.545Z,19.55
2022-08-26T18:41:40.554Z,19.50
2022-08-26T18:44:13.310Z,19.49
2022-08-26T18:46:40.354Z,19.48
2022-08-26T18:49:08.006Z,19.40
2022-08-26T18:51:34.716Z,19.02
2022-08-26T18:54:02.947Z,19.05
2022-08-26T18:56:29.476Z,18.93
2022-08-26T18:58:55.908Z,18.83
2022-08-26T19:01:26.723Z,18.76
2022-08-26T19:03:54.292Z,18.63
2022-08-26T19:06:21.701Z,18.68
2022-08-26T19:08:49.821Z,18.67
2022-08-26T19:11:17.175Z,18.67
2022-08-26T19:13:58.324Z,18.57
2022-08-26T19:16:25.897Z,18.56
2022-08-26T19:18:52.776Z,18.64
2022-08-26T19:21:20.111Z,18.69
2022-08-26T19:23:46.533Z,18.84
2022-08-26T19:26:13.079Z,18.77
2022-08-26T19:28:40.819Z,18.99
2022-08-26T19:31:11.134Z,18.81
2022-08-26T19:33:39.466Z,19.02
2022-08-26T19:36:06.614Z,19.04
2022-08-26T19:38:33.341Z,19.04
2022-08-26T19:41:00.045Z,19.03
2022-08-26T19:43:26.485Z,19.13
2022-08-26T19:45:53.048Z,19.12
2022-08-26T19:48:19.552Z,19.07
2022-08-26T19:50:46.403Z,18.96
2022-08-26T19:53:13.034Z,18.84
2022-08-26T19:55:39.697Z,18.81
2022-08-26T19:58:06.431Z,18.99
2022-08-26T20:00:34.501Z,18.88
2022-08-26T20:03:01.046Z,18.74
2022-08-26T20:05:27.819Z,18.66
2022-08-26T20:07:54.221Z,18.36
2022-08-26T20:10:22.150Z,18.20
2022-08-26T20:12:50.772Z,18.25
2022-08-26T20:15:17.525Z,18.23
2022-08-26T20:17:44.273Z,18.33
2022-08-26T20:20:33.186Z,18.26
2022-08-26T20:23:01.370Z,18.19
2022-08-26T20:25:27.895Z,18.22
2022-08-26T20:27:54.333Z,18.25
2022-08-26T20:30:20.895Z,18.20
2022-08-26T20:32:48.377Z,18.24
2022-08-26T20:35:14.988Z,18.29
2022-08-26T20:37:41.934Z,18.27
2022-08-26T20:40:09.490Z,18.34
2022-08-26T20:42:36.069Z,18.24
2022-08-26T20:45:03.212Z,18.25
2022-08-26T20:47:29.829Z,18.31
2022-08-26T20:49:56.374Z,18.33
2022-08-26T20:52:22.894Z,18.24
2022-08-26T20:54:49.268Z,18.26
2022-08-26T20:57:15.837Z,18.36
2022-08-26T20:59:43.525Z,18.33
2022-08-26T21:02:10.111Z,18.39
2022-08-26T21:04:36.653Z,18.53
2022-08-26T21:07:03.099Z,18.59
2022-08-26T21:09:29.679Z,18.50
2022-08-26T21:11:57.196Z,18.69
2022-08-26T21:14:25.865Z,18.77
2022-08-26T21:16:53.097Z,18.72
2022-08-26T21:19:19.655Z,18.87
2022-08-26T21:21:47.661Z,18.91
2022-08-26T21:24:14.416Z,18.83
2022-08-26T21:26:41.101Z,18.92
2022-08-26T21:29:09.921Z,18.78
2022-08-26T21:31:38.432Z,18.76
2022-08-26T21:34:06.517Z,18.82
2022-08-26T21:36:32.956Z,18.86
2022-08-26T21:38:59.899Z,18.86
2022-08-26T21:41:27.227Z,18.73
2022-08-26T21:43:55.769Z,18.88
2022-08-26T21:46:23.468Z,18.80
2022-08-26T21:48:51.688Z,18.72
2022-08-26T21:53:44.461Z,18.69
2022-08-26T21:56:12.165Z,18.54
2022-08-26T21:58:39.104Z,18.59
2022-08-26T22:01:10.233Z,18.54
2022-08-26T22:03:39.306Z,18.57
2022-08-26T22:06:14.938Z,18.58
2022-08-26T22:08:41.434Z,18.49
2022-08-26T22:11:09.464Z,18.49
2022-08-26T22:13:37.973Z,18.46
2022-08-26T22:16:05.112Z,18.51
2022-08-26T22:18:32.069Z,18.47
2022-08-26T22:21:00.759Z,18.42
2022-08-26T22:23:28.064Z,18.34
2022-08-26T22:25:54.642Z,18.29
2022-08-26T22:28:21.675Z,18.31
2022-08-26T22:30:48.764Z,18.40
2022-08-26T22:33:15.969Z,18.45
2022-08-26T22:35:44.619Z,18.57
2022-08-26T22:38:11.241Z,18.58
2022-08-26T22:40:38.226Z,18.68
2022-08-26T22:43:05.289Z,18.82
2022-08-26T22:45:32.251Z,18.72
2022-08-26T22:47:59.571Z,18.78
2022-08-26T22:50:26.439Z,18.97
2022-08-26T22:52:52.919Z,19.02
2022-08-26T22:55:19.313Z,19.03
2022-08-26T22:57:45.843Z,19.02
2022-08-26T23:00:13.902Z,18.90
2022-08-26T23:02:41.244Z,18.79
2022-08-26T23:05:08.615Z,18.77
2022-08-26T23:07:35.412Z,18.53
2022-08-26T23:10:03.682Z,18.49
2022-08-26T23:12:30.103Z,18.49
2022-08-26T23:14:56.504Z,18.50
2022-08-26T23:17:22.902Z,18.64
2022-08-26T23:19:49.275Z,18.58
2022-08-26T23:22:17.501Z,18.51
2022-08-26T23:24:44.036Z,18.54
2022-08-26T23:27:10.452Z,18.74
2022-08-26T23:29:36.908Z,18.58
2022-08-26T23:32:03.899Z,18.75
2022-08-26T23:34:48.912Z,18.77
2022-08-26T23:37:15.696Z,18.97
2022-08-26T23:39:42.121Z,18.96
2022-08-26T23:42:08.605Z,19.05
2022-08-26T23:44:34.993Z,18.95
2022-08-26T23:47:01.840Z,18.77
2022-08-26T23:49:28.928Z,18.75
2022-08-26T23:52:14.055Z,18.57
2022-08-26T23:54:40.843Z,18.72
2022-08-26T23:57:07.875Z,18.78
2022-08-26T23:59:34.292Z,19.03
